sensor_id;sensor_type;location;lat;lon;timestamp;temperature;humidity
15394;DHT22;7795;47.986;11.868;2022-08-19T00:01:34;23.00;70.70
15394;DHT22;7795;47.986;11.868;2022-08-19T00:04:02;23.10;70.80
15394;DHT22;7795;47.986;11.868;2022-08-19T00:06:29;23.10;70.90
15394;DHT22;7795;47.986;11.868;2022-08-19T00:08:58;23.10;70.80
15394;DHT22;7795;47.986;11.868;2022-08-19T00:11:26;23.00;71.00
15394;DHT22;7795;47.986;11.868;2022-08-19T00:13:53;23.00;71.00
15394;DHT22;7795;47.986;11.868;2022-08-19T00:16:19;23.00;71.00
15394;DHT22;7795;47.986;11.868;2022-08-19T00:18:46;23.00;71.00
15394;DHT22;7795;47.986;11.868;2022-08-19T00:21:11;23.00;71.00
15394;DHT22;7795;47.986;11.868;2022-08-19T00:23:37;23.00;71.10
15394;DHT22;7795;47.986;11.868;2022-08-19T00:26:05;23.00;71.10
15394;DHT22;7795;47.986;11.868;2022-08-19T00:28:32;23.00;71.20
15394;DHT22;7795;47.986;11.868;2022-08-19T00:31:15;23.00;71.20
15394;DHT22;7795;47.986;11.868;2022-08-19T00:33:41;23.10;71.40
15394;DHT22;7795;47.986;11.868;2022-08-19T00:36:11;23.00;71.20
15394;DHT22;7795;47.986;11.868;2022-08-19T00:38:38;23.10;71.30
15394;DHT22;7795;47.986;11.868;2022-08-19T00:41:09;23.10;71.40
15394;DHT22;7795;47.986;11.868;2022-08-19T00:43:36;23.10;71.30
15394;DHT22;7795;47.986;11.868;2022-08-19T00:46:02;23.10;71.30
15394;DHT22;7795;47.986;11.868;2022-08-19T00:48:31;23.10;71.40
15394;DHT22;7795;47.986;11.868;2022-08-19T00:50:59;23.00;71.40
15394;DHT22;7795;47.986;11.868;2022-08-19T00:53:27;23.00;71.40
15394;DHT22;7795;47.986;11.868;2022-08-19T00:55:59;23.00;71.40
15394;DHT22;7795;47.986;11.868;2022-08-19T00:58:30;23.00;71.50
15394;DHT22;7795;47.986;11.868;2022-08-19T01:00:58;23.00;71.60
15394;DHT22;7795;47.986;11.868;2022-08-19T01:03:23;23.00;71.40
15394;DHT22;7795;47.986;11.868;2022-08-19T01:05:52;23.00;71.40
15394;DHT22;7795;47.986;11.868;2022-08-19T01:08:20;23.00;71.50
15394;DHT22;7795;47.986;11.868;2022-08-19T01:10:49;23.00;71.30
15394;DHT22;7795;47.986;11.868;2022-08-19T01:13:16;23.00;71.50
15394;DHT22;7795;47.986;11.868;2022-08-19T01:15:46;22.90;71.30
15394;DHT22;7795;47.986;11.868;2022-08-19T01:18:15;22.90;71.40
15394;DHT22;7795;47.986;11.868;2022-08-19T01:20:42;22.90;71.40
15394;DHT22;7795;47.986;11.868;2022-08-19T01:23:10;22.90;71.40
15394;DHT22;7795;47.986;11.868;2022-08-19T01:25:40;22.80;71.50
15394;DHT22;7795;47.986;11.868;2022-08-19T01:28:07;22.80;71.60
15394;DHT22;7795;47.986;11.868;2022-08-19T01:30:34;22.80;71.50
15394;DHT22;7795;47.986;11.868;2022-08-19T01:33:02;22.80;71.60
15394;DHT22;7795;47.986;11.868;2022-08-19T01:35:30;22.80;71.70
15394;DHT22;7795;47.986;11.868;2022-08-19T01:37:59;22.70;71.70
15394;DHT22;7795;47.986;11.868;2022-08-19T01:40:30;22.70;71.70
15394;DHT22;7795;47.986;11.868;2022-08-19T01:42:57;22.70;71.80
15394;DHT22;7795;47.986;11.868;2022-08-19T01:45:25;22.70;71.80
15394;DHT22;7795;47.986;11.868;2022-08-19T01:47:51;22.70;72.00
15394;DHT22;7795;47.986;11.868;2022-08-19T01:50:17;22.60;71.90
15394;DHT22;7795;47.986;11.868;2022-08-19T01:52:43;22.60;72.00
15394;DHT22;7795;47.986;11.868;2022-08-19T01:55:12;22.60;72.00
15394;DHT22;7795;47.986;11.868;2022-08-19T01:57:41;22.60;72.10
15394;DHT22;7795;47.986;11.868;2022-08-19T02:00:13;22.60;72.30
15394;DHT22;7795;47.986;11.868;2022-08-19T02:02:41;22.50;72.30
15394;DHT22;7795;47.986;11.868;2022-08-19T02:05:08;22.50;72.10
15394;DHT22;7795;47.986;11.868;2022-08-19T02:07:34;22.50;72.30
15394;DHT22;7795;47.986;11.868;2022-08-19T02:10:02;22.50;72.30
15394;DHT22;7795;47.986;11.868;2022-08-19T02:12:29;22.50;72.40
15394;DHT22;7795;47.986;11.868;2022-08-19T02:14:56;22.50;72.50
15394;DHT22;7795;47.986;11.868;2022-08-19T02:17:22;22.50;72.40
15394;DHT22;7795;47.986;11.868;2022-08-19T02:19:47;22.50;72.40
15394;DHT22;7795;47.986;11.868;2022-08-19T02:22:14;22.50;72.50
15394;DHT22;7795;47.986;11.868;2022-08-19T02:24:40;22.40;72.50
15394;DHT22;7795;47.986;11.868;2022-08-19T02:27:06;22.50;72.50
15394;DHT22;7795;47.986;11.868;2022-08-19T02:29:32;22.50;72.50
15394;DHT22;7795;47.986;11.868;2022-08-19T02:31:59;22.50;72.40
15394;DHT22;7795;47.986;11.868;2022-08-19T02:34:27;22.50;72.40
15394;DHT22;7795;47.986;11.868;2022-08-19T02:36:53;22.50;73.10
15394;DHT22;7795;47.986;11.868;2022-08-19T02:39:19;22.50;72.30
15394;DHT22;7795;47.986;11.868;2022-08-19T02:41:45;22.50;72.40
15394;DHT22;7795;47.986;11.868;2022-08-19T02:44:11;22.50;72.30
15394;DHT22;7795;47.986;11.868;2022-08-19T02:46:37;22.40;72.20
15394;DHT22;7795;47.986;11.868;2022-08-19T02:49:07;22.40;72.20
15394;DHT22;7795;47.986;11.868;2022-08-19T02:51:35;22.40;72.30
15394;DHT22;7795;47.986;11.868;2022-08-19T02:54:01;22.40;72.30
15394;DHT22;7795;47.986;11.868;2022-08-19T02:56:27;22.40;72.30
15394;DHT22;7795;47.986;11.868;2022-08-19T02:58:53;22.40;72.30
15394;DHT22;7795;47.986;11.868;2022-08-19T03:01:21;22.30;72.20
15394;DHT22;7795;47.986;11.868;2022-08-19T03:03:47;22.40;72.30
15394;DHT22;7795;47.986;11.868;2022-08-19T03:06:15;22.30;72.20
15394;DHT22;7795;47.986;11.868;2022-08-19T03:08:43;22.30;72.30
15394;DHT22;7795;47.986;11.868;2022-08-19T03:11:14;22.30;72.30
15394;DHT22;7795;47.986;11.868;2022-08-19T03:13:40;22.30;72.40
15394;DHT22;7795;47.986;11.868;2022-08-19T03:16:06;22.30;72.30
15394;DHT22;7795;47.986;11.868;2022-08-19T03:18:32;22.30;72.30
15394;DHT22;7795;47.986;11.868;2022-08-19T03:20:58;22.30;72.40
15394;DHT22;7795;47.986;11.868;2022-08-19T03:23:25;22.30;72.40
15394;DHT22;7795;47.986;11.868;2022-08-19T03:25:52;22.30;72.40
15394;DHT22;7795;47.986;11.868;2022-08-19T03:28:19;22.30;72.40
15394;DHT22;7795;47.986;11.868;2022-08-19T03:30:56;22.30;72.40
15394;DHT22;7795;47.986;11.868;2022-08-19T03:33:22;22.30;72.60
15394;DHT22;7795;47.986;11.868;2022-08-19T03:35:59;22.30;72.40
15394;DHT22;7795;47.986;11.868;2022-08-19T03:38:27;22.30;72.50
15394;DHT22;7795;47.986;11.868;2022-08-19T03:40:56;22.30;72.40
15394;DHT22;7795;47.986;11.868;2022-08-19T03:43:21;22.30;72.40
15394;DHT22;7795;47.986;11.868;2022-08-19T03:45:47;22.30;72.40
15394;DHT22;7795;47.986;11.868;2022-08-19T03:48:14;22.30;72.40
15394;DHT22;7795;47.986;11.868;2022-08-19T03:50:42;22.30;72.40
15394;DHT22;7795;47.986;11.868;2022-08-19T03:53:08;22.30;72.40
15394;DHT22;7795;47.986;11.868;2022-08-19T03:55:40;22.30;72.40
15394;DHT22;7795;47.986;11.868;2022-08-19T03:58:06;22.30;73.30
15394;DHT22;7795;47.986;11.868;2022-08-19T04:00:32;22.30;72.40
15394;DHT22;7795;47.986;11.868;2022-08-19T04:02:59;22.30;72.40
15394;DHT22;7795;47.986;11.868;2022-08-19T04:05:26;22.30;72.40
15394;DHT22;7795;47.986;11.868;2022-08-19T04:07:53;22.40;72.40
15394;DHT22;7795;47.986;11.868;2022-08-19T04:10:24;22.30;72.30
15394;DHT22;7795;47.986;11.868;2022-08-19T04:12:51;22.40;72.40
15394;DHT22;7795;47.986;11.868;2022-08-19T04:15:17;22.40;72.40
15394;DHT22;7795;47.986;11.868;2022-08-19T04:17:43;22.40;72.40
15394;DHT22;7795;47.986;11.868;2022-08-19T04:20:09;22.40;72.40
15394;DHT22;7795;47.986;11.868;2022-08-19T04:22:35;22.40;72.30
15394;DHT22;7795;47.986;11.868;2022-08-19T04:25:01;22.40;73.10
15394;DHT22;7795;47.986;11.868;2022-08-19T04:27:27;22.40;72.40
15394;DHT22;7795;47.986;11.868;2022-08-19T04:29:54;22.40;72.30
15394;DHT22;7795;47.986;11.868;2022-08-19T04:32:20;22.40;72.40
15394;DHT22;7795;47.986;11.868;2022-08-19T04:34:46;22.40;72.40
15394;DHT22;7795;47.986;11.868;2022-08-19T04:37:12;22.40;72.40
15394;DHT22;7795;47.986;11.868;2022-08-19T04:39:39;22.40;72.40
15394;DHT22;7795;47.986;11.868;2022-08-19T04:42:23;22.40;72.30
15394;DHT22;7795;47.986;11.868;2022-08-19T04:45:07;22.40;72.30
15394;DHT22;7795;47.986;11.868;2022-08-19T04:47:35;22.40;72.20
15394;DHT22;7795;47.986;11.868;2022-08-19T04:50:02;22.40;72.20
15394;DHT22;7795;47.986;11.868;2022-08-19T04:52:28;22.40;72.20
15394;DHT22;7795;47.986;11.868;2022-08-19T04:54:57;22.40;72.30
15394;DHT22;7795;47.986;11.868;2022-08-19T04:57:23;22.40;72.20
15394;DHT22;7795;47.986;11.868;2022-08-19T04:59:53;22.40;72.30
15394;DHT22;7795;47.986;11.868;2022-08-19T05:02:21;22.40;72.40
15394;DHT22;7795;47.986;11.868;2022-08-19T05:04:50;22.40;72.40
15394;DHT22;7795;47.986;11.868;2022-08-19T05:07:16;22.50;72.50
15394;DHT22;7795;47.986;11.868;2022-08-19T05:09:41;22.50;72.50
15394;DHT22;7795;47.986;11.868;2022-08-19T05:12:08;22.50;72.40
15394;DHT22;7795;47.986;11.868;2022-08-19T05:14:33;22.50;72.40
15394;DHT22;7795;47.986;11.868;2022-08-19T05:17:02;22.50;72.50
15394;DHT22;7795;47.986;11.868;2022-08-19T05:19:29;22.50;72.50
15394;DHT22;7795;47.986;11.868;2022-08-19T05:22:13;22.50;73.40
15394;DHT22;7795;47.986;11.868;2022-08-19T05:24:58;22.50;72.70
15394;DHT22;7795;47.986;11.868;2022-08-19T05:27:23;22.50;72.70
15394;DHT22;7795;47.986;11.868;2022-08-19T05:29:49;22.50;72.80
15394;DHT22;7795;47.986;11.868;2022-08-19T05:32:15;22.50;73.00
15394;DHT22;7795;47.986;11.868;2022-08-19T05:34:42;22.50;73.10
15394;DHT22;7795;47.986;11.868;2022-08-19T05:37:08;22.50;73.30
15394;DHT22;7795;47.986;11.868;2022-08-19T05:39:36;22.50;73.30
15394;DHT22;7795;47.986;11.868;2022-08-19T05:42:05;22.50;73.40
15394;DHT22;7795;47.986;11.868;2022-08-19T05:44:36;22.60;73.60
15394;DHT22;7795;47.986;11.868;2022-08-19T05:47:04;22.50;73.70
15394;DHT22;7795;47.986;11.868;2022-08-19T05:49:32;22.50;73.70
15394;DHT22;7795;47.986;11.868;2022-08-19T05:52:01;22.50;74.30
15394;DHT22;7795;47.986;11.868;2022-08-19T05:54:27;22.50;73.80
15394;DHT22;7795;47.986;11.868;2022-08-19T05:56:53;22.50;73.80
15394;DHT22;7795;47.986;11.868;2022-08-19T05:59:20;22.50;73.90
15394;DHT22;7795;47.986;11.868;2022-08-19T06:01:48;22.50;74.00
15394;DHT22;7795;47.986;11.868;2022-08-19T06:04:18;22.50;74.00
15394;DHT22;7795;47.986;11.868;2022-08-19T06:06:45;22.50;74.10
15394;DHT22;7795;47.986;11.868;2022-08-19T06:09:13;22.50;74.30
15394;DHT22;7795;47.986;11.868;2022-08-19T06:11:41;22.50;74.40
15394;DHT22;7795;47.986;11.868;2022-08-19T06:14:09;22.50;74.50
15394;DHT22;7795;47.986;11.868;2022-08-19T06:16:36;22.40;74.40
15394;DHT22;7795;47.986;11.868;2022-08-19T06:19:06;22.50;74.40
15394;DHT22;7795;47.986;11.868;2022-08-19T06:21:34;22.50;74.70
15394;DHT22;7795;47.986;11.868;2022-08-19T06:24:03;22.40;74.60
15394;DHT22;7795;47.986;11.868;2022-08-19T06:26:31;22.50;74.80
15394;DHT22;7795;47.986;11.868;2022-08-19T06:28:58;22.40;75.00
15394;DHT22;7795;47.986;11.868;2022-08-19T06:31:26;22.50;75.00
15394;DHT22;7795;47.986;11.868;2022-08-19T06:33:52;22.40;75.10
15394;DHT22;7795;47.986;11.868;2022-08-19T06:36:20;22.50;75.20
15394;DHT22;7795;47.986;11.868;2022-08-19T06:38:46;22.50;75.40
15394;DHT22;7795;47.986;11.868;2022-08-19T06:41:12;22.50;75.40
15394;DHT22;7795;47.986;11.868;2022-08-19T06:43:39;22.50;76.30
15394;DHT22;7795;47.986;11.868;2022-08-19T06:46:12;22.50;75.60
15394;DHT22;7795;47.986;11.868;2022-08-19T06:48:38;22.50;76.00
15394;DHT22;7795;47.986;11.868;2022-08-19T06:51:05;22.60;75.90
15394;DHT22;7795;47.986;11.868;2022-08-19T06:53:31;22.60;75.80
15394;DHT22;7795;47.986;11.868;2022-08-19T06:55:57;22.60;75.80
15394;DHT22;7795;47.986;11.868;2022-08-19T06:58:27;22.60;75.90
15394;DHT22;7795;47.986;11.868;2022-08-19T07:00:59;22.60;75.80
15394;DHT22;7795;47.986;11.868;2022-08-19T07:03:27;22.60;75.90
15394;DHT22;7795;47.986;11.868;2022-08-19T07:05:53;22.70;76.10
15394;DHT22;7795;47.986;11.868;2022-08-19T07:08:19;22.70;76.10
15394;DHT22;7795;47.986;11.868;2022-08-19T07:10:46;22.70;76.10
15394;DHT22;7795;47.986;11.868;2022-08-19T07:13:12;22.80;75.80
15394;DHT22;7795;47.986;11.868;2022-08-19T07:15:37;22.80;75.80
15394;DHT22;7795;47.986;11.868;2022-08-19T07:18:05;22.80;76.00
15394;DHT22;7795;47.986;11.868;2022-08-19T07:20:31;22.80;76.10
15394;DHT22;7795;47.986;11.868;2022-08-19T07:22:58;22.90;76.10
15394;DHT22;7795;47.986;11.868;2022-08-19T07:25:24;22.90;76.00
15394;DHT22;7795;47.986;11.868;2022-08-19T07:27:50;22.90;76.00
15394;DHT22;7795;47.986;11.868;2022-08-19T07:30:16;23.00;75.90
15394;DHT22;7795;47.986;11.868;2022-08-19T07:32:42;23.00;75.80
15394;DHT22;7795;47.986;11.868;2022-08-19T07:35:10;23.10;75.90
15394;DHT22;7795;47.986;11.868;2022-08-19T07:37:35;23.10;75.80
15394;DHT22;7795;47.986;11.868;2022-08-19T07:40:04;23.20;75.90
15394;DHT22;7795;47.986;11.868;2022-08-19T07:42:30;23.20;76.00
15394;DHT22;7795;47.986;11.868;2022-08-19T07:44:56;23.30;75.90
15394;DHT22;7795;47.986;11.868;2022-08-19T07:47:21;23.30;75.70
15394;DHT22;7795;47.986;11.868;2022-08-19T07:49:47;23.40;75.60
15394;DHT22;7795;47.986;11.868;2022-08-19T07:52:15;23.40;75.20
15394;DHT22;7795;47.986;11.868;2022-08-19T07:54:42;23.50;75.10
15394;DHT22;7795;47.986;11.868;2022-08-19T07:57:08;23.50;74.80
15394;DHT22;7795;47.986;11.868;2022-08-19T07:59:34;23.60;74.70
15394;DHT22;7795;47.986;11.868;2022-08-19T08:02:01;23.60;74.70
15394;DHT22;7795;47.986;11.868;2022-08-19T08:04:28;23.60;74.60
15394;DHT22;7795;47.986;11.868;2022-08-19T08:07:12;23.70;74.30
15394;DHT22;7795;47.986;11.868;2022-08-19T08:09:58;23.70;74.20
15394;DHT22;7795;47.986;11.868;2022-08-19T08:12:27;23.70;74.10
15394;DHT22;7795;47.986;11.868;2022-08-19T08:14:56;23.70;74.20
15394;DHT22;7795;47.986;11.868;2022-08-19T08:17:25;23.70;74.30
15394;DHT22;7795;47.986;11.868;2022-08-19T08:19:52;23.70;75.10
15394;DHT22;7795;47.986;11.868;2022-08-19T08:22:19;23.70;74.40
15394;DHT22;7795;47.986;11.868;2022-08-19T08:25:09;23.70;74.50
15394;DHT22;7795;47.986;11.868;2022-08-19T08:27:36;23.70;74.20
15394;DHT22;7795;47.986;11.868;2022-08-19T08:30:02;23.70;74.10
15394;DHT22;7795;47.986;11.868;2022-08-19T08:32:29;23.80;74.20
15394;DHT22;7795;47.986;11.868;2022-08-19T08:34:55;23.80;74.80
15394;DHT22;7795;47.986;11.868;2022-08-19T08:37:21;23.80;73.90
15394;DHT22;7795;47.986;11.868;2022-08-19T08:39:47;23.80;73.80
15394;DHT22;7795;47.986;11.868;2022-08-19T08:42:20;23.80;73.70
15394;DHT22;7795;47.986;11.868;2022-08-19T08:44:53;23.80;73.80
15394;DHT22;7795;47.986;11.868;2022-08-19T08:47:22;23.80;73.90
15394;DHT22;7795;47.986;11.868;2022-08-19T08:49:51;23.80;74.00
15394;DHT22;7795;47.986;11.868;2022-08-19T08:52:22;23.80;73.80
15394;DHT22;7795;47.986;11.868;2022-08-19T08:54:53;23.80;73.80
15394;DHT22;7795;47.986;11.868;2022-08-19T08:57:25;23.80;73.80
15394;DHT22;7795;47.986;11.868;2022-08-19T08:59:54;23.80;73.90
15394;DHT22;7795;47.986;11.868;2022-08-19T09:02:21;23.80;73.80
15394;DHT22;7795;47.986;11.868;2022-08-19T09:04:47;23.80;74.60
15394;DHT22;7795;47.986;11.868;2022-08-19T09:07:22;23.80;73.90
15394;DHT22;7795;47.986;11.868;2022-08-19T09:09:56;23.80;74.20
15394;DHT22;7795;47.986;11.868;2022-08-19T09:12:34;23.80;74.10
15394;DHT22;7795;47.986;11.868;2022-08-19T09:15:05;23.90;74.50
15394;DHT22;7795;47.986;11.868;2022-08-19T09:17:32;23.90;74.30
15394;DHT22;7795;47.986;11.868;2022-08-19T09:20:00;23.90;74.30
15394;DHT22;7795;47.986;11.868;2022-08-19T09:22:31;24.00;74.30
15394;DHT22;7795;47.986;11.868;2022-08-19T09:24:57;24.00;74.40
15394;DHT22;7795;47.986;11.868;2022-08-19T09:27:24;24.10;74.70
15394;DHT22;7795;47.986;11.868;2022-08-19T09:29:53;24.10;74.60
15394;DHT22;7795;47.986;11.868;2022-08-19T09:32:20;24.20;74.00
15394;DHT22;7795;47.986;11.868;2022-08-19T09:34:46;24.30;73.60
15394;DHT22;7795;47.986;11.868;2022-08-19T09:37:12;24.40;73.10
15394;DHT22;7795;47.986;11.868;2022-08-19T09:39:38;24.50;72.80
15394;DHT22;7795;47.986;11.868;2022-08-19T09:42:06;24.50;72.50
15394;DHT22;7795;47.986;11.868;2022-08-19T09:44:37;24.60;72.20
15394;DHT22;7795;47.986;11.868;2022-08-19T09:47:04;24.60;71.90
15394;DHT22;7795;47.986;11.868;2022-08-19T09:49:30;24.70;71.90
15394;DHT22;7795;47.986;11.868;2022-08-19T09:51:56;24.70;71.70
15394;DHT22;7795;47.986;11.868;2022-08-19T09:54:23;24.70;71.60
15394;DHT22;7795;47.986;11.868;2022-08-19T09:56:49;24.80;71.60
15394;DHT22;7795;47.986;11.868;2022-08-19T09:59:15;24.80;71.60
15394;DHT22;7795;47.986;11.868;2022-08-19T10:01:41;24.80;71.60
15394;DHT22;7795;47.986;11.868;2022-08-19T10:04:09;24.90;72.50
15394;DHT22;7795;47.986;11.868;2022-08-19T10:06:36;25.00;71.60
15394;DHT22;7795;47.986;11.868;2022-08-19T10:09:03;25.10;71.70
15394;DHT22;7795;47.986;11.868;2022-08-19T10:11:31;25.20;71.30
15394;DHT22;7795;47.986;11.868;2022-08-19T10:13:57;25.30;71.00
15394;DHT22;7795;47.986;11.868;2022-08-19T10:16:24;25.40;70.50
15394;DHT22;7795;47.986;11.868;2022-08-19T10:18:51;25.50;69.80
15394;DHT22;7795;47.986;11.868;2022-08-19T10:21:20;25.60;69.70
15394;DHT22;7795;47.986;11.868;2022-08-19T10:23:48;25.70;69.30
15394;DHT22;7795;47.986;11.868;2022-08-19T10:26:16;25.80;69.30
15394;DHT22;7795;47.986;11.868;2022-08-19T10:28:43;25.90;69.20
15394;DHT22;7795;47.986;11.868;2022-08-19T10:31:10;25.90;68.80
15394;DHT22;7795;47.986;11.868;2022-08-19T10:33:38;26.00;68.30
15394;DHT22;7795;47.986;11.868;2022-08-19T10:36:07;26.10;68.20
15394;DHT22;7795;47.986;11.868;2022-08-19T10:38:35;26.20;67.80
15394;DHT22;7795;47.986;11.868;2022-08-19T10:41:09;26.20;67.40
15394;DHT22;7795;47.986;11.868;2022-08-19T10:43:35;26.20;67.10
15394;DHT22;7795;47.986;11.868;2022-08-19T10:46:04;26.20;67.70
15394;DHT22;7795;47.986;11.868;2022-08-19T10:48:31;26.20;67.40
15394;DHT22;7795;47.986;11.868;2022-08-19T10:50:57;26.20;67.50
15394;DHT22;7795;47.986;11.868;2022-08-19T10:53:43;26.20;67.40
15394;DHT22;7795;47.986;11.868;2022-08-19T10:56:08;26.20;67.00
15394;DHT22;7795;47.986;11.868;2022-08-19T10:58:53;26.20;67.30
15394;DHT22;7795;47.986;11.868;2022-08-19T11:01:19;26.20;67.20
15394;DHT22;7795;47.986;11.868;2022-08-19T11:03:45;26.20;67.20
15394;DHT22;7795;47.986;11.868;2022-08-19T11:06:11;26.20;66.90
15394;DHT22;7795;47.986;11.868;2022-08-19T11:08:37;26.20;66.90
15394;DHT22;7795;47.986;11.868;2022-08-19T11:11:07;26.20;66.80
15394;DHT22;7795;47.986;11.868;2022-08-19T11:13:35;26.30;66.40
15394;DHT22;7795;47.986;11.868;2022-08-19T11:16:05;26.30;66.40
15394;DHT22;7795;47.986;11.868;2022-08-19T11:18:32;26.30;66.60
15394;DHT22;7795;47.986;11.868;2022-08-19T11:21:06;26.30;66.30
15394;DHT22;7795;47.986;11.868;2022-08-19T11:23:32;26.30;65.50
15394;DHT22;7795;47.986;11.868;2022-08-19T11:25:58;26.30;65.70
15394;DHT22;7795;47.986;11.868;2022-08-19T11:28:26;26.30;65.80
15394;DHT22;7795;47.986;11.868;2022-08-19T11:30:52;26.30;65.50
15394;DHT22;7795;47.986;11.868;2022-08-19T11:33:18;26.40;65.60
15394;DHT22;7795;47.986;11.868;2022-08-19T11:35:44;26.40;65.60
15394;DHT22;7795;47.986;11.868;2022-08-19T11:38:10;26.40;65.70
15394;DHT22;7795;47.986;11.868;2022-08-19T11:40:36;26.50;65.60
15394;DHT22;7795;47.986;11.868;2022-08-19T11:43:03;26.50;65.50
15394;DHT22;7795;47.986;11.868;2022-08-19T11:45:31;26.50;65.00
15394;DHT22;7795;47.986;11.868;2022-08-19T11:47:57;26.50;64.80
15394;DHT22;7795;47.986;11.868;2022-08-19T11:50:23;26.50;64.60
15394;DHT22;7795;47.986;11.868;2022-08-19T11:52:49;26.50;64.40
15394;DHT22;7795;47.986;11.868;2022-08-19T11:55:15;26.50;64.50
15394;DHT22;7795;47.986;11.868;2022-08-19T11:57:41;26.60;64.30
15394;DHT22;7795;47.986;11.868;2022-08-19T12:00:10;26.60;64.10
15394;DHT22;7795;47.986;11.868;2022-08-19T12:02:39;26.60;64.00
15394;DHT22;7795;47.986;11.868;2022-08-19T12:05:06;26.60;63.80
15394;DHT22;7795;47.986;11.868;2022-08-19T12:07:32;26.60;63.70
15394;DHT22;7795;47.986;11.868;2022-08-19T12:09:58;26.60;63.70
15394;DHT22;7795;47.986;11.868;2022-08-19T12:12:24;26.60;63.60
15394;DHT22;7795;47.986;11.868;2022-08-19T12:14:50;26.70;63.80
15394;DHT22;7795;47.986;11.868;2022-08-19T12:17:22;26.70;63.60
15394;DHT22;7795;47.986;11.868;2022-08-19T12:19:49;26.70;63.20
15394;DHT22;7795;47.986;11.868;2022-08-19T12:22:15;26.80;62.80
15394;DHT22;7795;47.986;11.868;2022-08-19T12:24:41;26.90;63.10
15394;DHT22;7795;47.986;11.868;2022-08-19T12:27:06;26.90;63.30
15394;DHT22;7795;47.986;11.868;2022-08-19T12:29:32;26.90;63.50
15394;DHT22;7795;47.986;11.868;2022-08-19T12:31:59;27.00;64.20
15394;DHT22;7795;47.986;11.868;2022-08-19T12:34:28;27.00;63.20
15394;DHT22;7795;47.986;11.868;2022-08-19T12:36:57;27.00;63.10
15394;DHT22;7795;47.986;11.868;2022-08-19T12:39:23;27.10;63.10
15394;DHT22;7795;47.986;11.868;2022-08-19T12:41:49;27.20;63.30
15394;DHT22;7795;47.986;11.868;2022-08-19T12:44:15;27.20;62.90
15394;DHT22;7795;47.986;11.868;2022-08-19T12:46:41;27.30;62.30
15394;DHT22;7795;47.986;11.868;2022-08-19T12:49:07;27.30;62.00
15394;DHT22;7795;47.986;11.868;2022-08-19T12:51:33;27.30;61.90
15394;DHT22;7795;47.986;11.868;2022-08-19T12:54:00;27.30;61.60
15394;DHT22;7795;47.986;11.868;2022-08-19T12:56:27;27.40;62.00
15394;DHT22;7795;47.986;11.868;2022-08-19T12:58:52;27.40;61.90
15394;DHT22;7795;47.986;11.868;2022-08-19T13:01:19;27.40;62.00
15394;DHT22;7795;47.986;11.868;2022-08-19T13:03:46;27.40;61.90
15394;DHT22;7795;47.986;11.868;2022-08-19T13:06:12;27.40;62.00
15394;DHT22;7795;47.986;11.868;2022-08-19T13:08:38;27.50;61.80
15394;DHT22;7795;47.986;11.868;2022-08-19T13:11:11;27.50;61.90
15394;DHT22;7795;47.986;11.868;2022-08-19T13:13:38;27.50;61.70
15394;DHT22;7795;47.986;11.868;2022-08-19T13:16:07;27.40;61.90
15394;DHT22;7795;47.986;11.868;2022-08-19T13:18:33;27.40;61.70
15394;DHT22;7795;47.986;11.868;2022-08-19T13:21:02;27.40;61.60
15394;DHT22;7795;47.986;11.868;2022-08-19T13:23:29;27.40;61.50
15394;DHT22;7795;47.986;11.868;2022-08-19T13:25:56;27.30;61.50
15394;DHT22;7795;47.986;11.868;2022-08-19T13:28:24;27.30;61.50
15394;DHT22;7795;47.986;11.868;2022-08-19T13:30:49;27.30;61.50
15394;DHT22;7795;47.986;11.868;2022-08-19T13:33:33;27.20;62.00
15394;DHT22;7795;47.986;11.868;2022-08-19T13:36:00;27.20;61.60
15394;DHT22;7795;47.986;11.868;2022-08-19T13:38:27;27.20;61.40
15394;DHT22;7795;47.986;11.868;2022-08-19T13:40:54;27.20;61.30
15394;DHT22;7795;47.986;11.868;2022-08-19T13:43:25;27.20;61.20
15394;DHT22;7795;47.986;11.868;2022-08-19T13:45:52;27.20;61.00
15394;DHT22;7795;47.986;11.868;2022-08-19T13:48:21;27.20;61.70
15394;DHT22;7795;47.986;11.868;2022-08-19T13:50:47;27.20;60.90
15394;DHT22;7795;47.986;11.868;2022-08-19T13:53:14;27.20;60.80
15394;DHT22;7795;47.986;11.868;2022-08-19T13:55:40;27.20;60.90
15394;DHT22;7795;47.986;11.868;2022-08-19T13:58:07;27.20;60.90
15394;DHT22;7795;47.986;11.868;2022-08-19T14:00:36;27.20;60.90
15394;DHT22;7795;47.986;11.868;2022-08-19T14:03:03;27.20;61.10
15394;DHT22;7795;47.986;11.868;2022-08-19T14:05:30;27.30;61.30
15394;DHT22;7795;47.986;11.868;2022-08-19T14:07:56;27.20;61.00
15394;DHT22;7795;47.986;11.868;2022-08-19T14:10:23;27.20;60.50
15394;DHT22;7795;47.986;11.868;2022-08-19T14:12:51;27.30;60.60
15394;DHT22;7795;47.986;11.868;2022-08-19T14:15:17;27.20;61.40
15394;DHT22;7795;47.986;11.868;2022-08-19T14:17:45;27.30;60.60
15394;DHT22;7795;47.986;11.868;2022-08-19T14:20:14;27.30;60.40
15394;DHT22;7795;47.986;11.868;2022-08-19T14:22:41;27.30;60.60
15394;DHT22;7795;47.986;11.868;2022-08-19T14:25:10;27.30;60.50
15394;DHT22;7795;47.986;11.868;2022-08-19T14:27:37;27.30;60.40
15394;DHT22;7795;47.986;11.868;2022-08-19T14:30:05;27.40;60.30
15394;DHT22;7795;47.986;11.868;2022-08-19T14:32:32;27.40;60.10
15394;DHT22;7795;47.986;11.868;2022-08-19T14:35:00;27.40;59.60
15394;DHT22;7795;47.986;11.868;2022-08-19T14:37:26;27.40;60.00
15394;DHT22;7795;47.986;11.868;2022-08-19T14:39:52;27.40;59.70
15394;DHT22;7795;47.986;11.868;2022-08-19T14:42:18;27.50;60.40
15394;DHT22;7795;47.986;11.868;2022-08-19T14:44:44;27.50;59.60
15394;DHT22;7795;47.986;11.868;2022-08-19T14:47:10;27.50;59.70
15394;DHT22;7795;47.986;11.868;2022-08-19T14:49:36;27.50;59.50
15394;DHT22;7795;47.986;11.868;2022-08-19T14:52:04;27.50;59.60
15394;DHT22;7795;47.986;11.868;2022-08-19T14:54:30;27.50;59.40
15394;DHT22;7795;47.986;11.868;2022-08-19T14:56:56;27.50;59.20
15394;DHT22;7795;47.986;11.868;2022-08-19T14:59:22;27.40;59.10
15394;DHT22;7795;47.986;11.868;2022-08-19T15:01:48;27.30;59.20
15394;DHT22;7795;47.986;11.868;2022-08-19T15:04:13;27.30;59.40
15394;DHT22;7795;47.986;11.868;2022-08-19T15:06:39;27.20;59.50
15394;DHT22;7795;47.986;11.868;2022-08-19T15:09:07;27.20;59.50
15394;DHT22;7795;47.986;11.868;2022-08-19T15:11:33;27.10;59.40
15394;DHT22;7795;47.986;11.868;2022-08-19T15:14:00;27.10;59.40
15394;DHT22;7795;47.986;11.868;2022-08-19T15:16:27;27.10;59.50
15394;DHT22;7795;47.986;11.868;2022-08-19T15:18:55;27.10;59.50
15394;DHT22;7795;47.986;11.868;2022-08-19T15:21:22;27.10;59.50
15394;DHT22;7795;47.986;11.868;2022-08-19T15:23:49;27.10;59.60
15394;DHT22;7795;47.986;11.868;2022-08-19T15:26:18;27.00;59.60
15394;DHT22;7795;47.986;11.868;2022-08-19T15:28:44;27.00;59.60
15394;DHT22;7795;47.986;11.868;2022-08-19T15:31:12;27.00;59.40
15394;DHT22;7795;47.986;11.868;2022-08-19T15:33:39;27.00;59.50